createdAt,value
2018-12-19T02:28:27.815Z,100866.67
2018-12-19T02:30:02.786Z,100867.66
2018-12-19T02:31:37.740Z,100870.48
2018-12-19T02:33:12.678Z,100867.71
2018-12-19T02:34:47.596Z,100850.47
2018-12-19T02:36:22.510Z,100849.73
2018-12-19T02:37:57.415Z,100844.70
2018-12-19T02:39:36.152Z,100845.70
2018-12-19T02:41:09.367Z,100837.05
2018-12-19T02:42:44.299Z,100837.78
2018-12-19T02:44:19.388Z,100842.12
2018-12-19T02:45:54.387Z,100846.51
2018-12-19T02:47:29.295Z,100828.97
2018-12-19T02:49:04.299Z,100832.06
2018-12-19T02:50:39.406Z,100830.40
2018-12-19T02:52:14.510Z,100822.94
2018-12-19T02:53:49.444Z,100827.57
2018-12-19T02:55:24.360Z,100823.16
2018-12-19T02:56:59.334Z,100827.45
2018-12-19T02:58:37.320Z,100816.95
2018-12-19T03:00:12.264Z,100812.38
2018-12-19T03:01:47.181Z,100798.95
2018-12-19T03:03:22.125Z,100810.36
2018-12-19T03:04:57.104Z,100819.56
2018-12-19T03:06:32.032Z,100826.35
2018-12-19T03:08:06.945Z,100817.22
2018-12-19T03:09:43.024Z,100821.62
2018-12-19T03:11:18.505Z,100825.24
2018-12-19T03:12:54.419Z,100818.67
2018-12-19T03:14:29.519Z,100819.95
2018-12-19T03:16:04.615Z,100834.79
2018-12-19T03:17:39.596Z,100839.02
2018-12-19T03:19:14.507Z,100826.17
2018-12-19T03:20:49.403Z,100824.88
2018-12-19T03:22:24.344Z,100811.25
2018-12-19T03:24:05.855Z,100806.52
2018-12-19T03:25:40.734Z,100799.52
2018-12-19T03:27:15.723Z,100806.77
2018-12-19T03:28:50.736Z,100791.12
2018-12-19T03:30:25.746Z,100804.13
2018-12-19T03:32:00.658Z,100799.00
2018-12-19T03:33:35.692Z,100797.10
2018-12-19T03:35:10.611Z,100798.63
2018-12-19T03:36:45.592Z,100798.56
2018-12-19T03:38:24.409Z,100804.50
2018-12-19T04:08:34.103Z,100802.13
2018-12-19T04:10:09.029Z,100794.94
2018-12-19T04:11:43.948Z,100798.39
2018-12-19T04:13:18.832Z,100791.70
2018-12-19T04:14:53.754Z,100787.70
2018-12-19T04:16:28.703Z,100787.53
2018-12-19T04:18:03.580Z,100786.63
2018-12-19T04:19:38.566Z,100782.73
2018-12-19T04:21:13.496Z,100785.98
2018-12-19T04:22:48.383Z,100784.70
2018-12-19T04:24:23.323Z,100787.13
2018-12-19T04:25:58.322Z,100779.56
2018-12-19T04:27:33.294Z,100781.97
2018-12-19T04:29:08.212Z,100779.69
2018-12-19T04:30:43.142Z,100775.84
2018-12-19T04:32:18.776Z,100782.55
2018-12-19T04:33:53.792Z,100770.81
2018-12-19T04:35:28.839Z,100765.33
2018-12-19T04:37:03.829Z,100773.20
2018-12-19T04:38:38.819Z,100776.95
2018-12-19T04:40:13.794Z,100778.60
2018-12-19T04:41:48.741Z,100773.81
2018-12-19T04:43:24.258Z,100776.77
2018-12-19T04:44:59.314Z,100773.70
2018-12-19T04:46:34.495Z,100767.30
2018-12-19T04:48:10.087Z,100765.79
2018-12-19T04:49:45.099Z,100753.91
2018-12-19T04:51:21.807Z,100754.73
2018-12-19T04:52:57.059Z,100759.31
2018-12-19T04:54:32.317Z,100753.04
2018-12-19T04:56:07.637Z,100748.45
2018-12-19T04:57:42.594Z,100745.36
2018-12-19T04:59:17.573Z,100747.57
2018-12-19T05:00:52.917Z,100755.05
2018-12-19T05:02:27.843Z,100749.83
2018-12-19T05:04:02.909Z,100750.81
2018-12-19T05:05:37.890Z,100742.88
2018-12-19T05:07:12.802Z,100745.48
2018-12-19T05:08:47.830Z,100741.78
2018-12-19T05:10:23.370Z,100738.25
2018-12-19T05:11:58.330Z,100739.66
2018-12-19T05:13:33.232Z,100746.30
2018-12-19T05:15:11.308Z,100743.98
2018-12-19T05:16:46.247Z,100742.64
2018-12-19T05:18:21.200Z,100736.84
2018-12-19T05:19:56.251Z,100743.70
2018-12-19T05:21:31.412Z,100735.60
2018-12-19T05:23:06.366Z,100742.32
2018-12-19T05:24:41.320Z,100741.06
2018-12-19T05:26:16.462Z,100740.11
2018-12-19T05:27:51.407Z,100737.99
2018-12-19T05:29:26.439Z,100738.17
2018-12-19T05:31:01.835Z,100733.05
2018-12-19T05:32:37.012Z,100729.56
2018-12-19T05:34:11.892Z,100726.23
2018-12-19T05:35:46.848Z,100722.47
2018-12-19T05:37:21.927Z,100724.83
2018-12-19T05:38:57.036Z,100716.44
2018-12-19T05:40:32.014Z,100715.49
2018-12-19T05:42:06.893Z,100720.50
2018-12-19T05:43:42.169Z,100725.63
2018-12-19T05:45:17.140Z,100716.20
2018-12-19T05:46:52.166Z,100709.41
2018-12-19T05:48:27.039Z,100716.98
2018-12-19T05:50:02.599Z,100707.02
2018-12-19T05:51:37.625Z,100718.83
2018-12-19T05:53:12.951Z,100717.78
2018-12-19T05:54:48.117Z,100720.06
2018-12-19T05:56:23.215Z,100722.57
2018-12-19T05:57:58.153Z,100723.03
2018-12-19T05:59:33.061Z,100716.17
2018-12-19T06:01:07.985Z,100723.47
2018-12-19T06:02:42.968Z,100722.19
2018-12-19T06:04:17.913Z,100721.60
2018-12-19T06:05:52.953Z,100720.84
2018-12-19T06:07:27.893Z,100721.00
2018-12-19T06:09:04.520Z,100729.23
2018-12-19T06:10:39.715Z,100732.56
2018-12-19T06:12:14.751Z,100739.56
2018-12-19T06:13:49.667Z,100739.27
2018-12-19T06:15:24.619Z,100739.10
2018-12-19T06:16:59.487Z,100729.62
2018-12-19T06:18:34.764Z,100727.95
2018-12-19T06:20:09.708Z,100722.11
2018-12-19T06:21:44.616Z,100719.14
2018-12-19T06:23:19.587Z,100722.34
2018-12-19T06:24:54.575Z,100720.88
2018-12-19T06:26:29.479Z,100718.17
2018-12-19T06:28:04.423Z,100725.63
2018-12-19T06:29:45.838Z,100718.35
2018-12-19T06:31:20.835Z,100726.38
2018-12-19T06:32:55.738Z,100725.75
2018-12-19T06:34:30.642Z,100727.25
2018-12-19T06:36:06.548Z,100718.92
2018-12-19T06:37:41.814Z,100717.67
2018-12-19T06:39:16.829Z,100718.52
2018-12-19T06:40:51.771Z,100721.69
2018-12-19T06:42:26.720Z,100726.80
2018-12-19T06:44:01.731Z,100728.16
2018-12-19T06:45:36.696Z,100726.86
2018-12-19T06:47:11.644Z,100728.52
2018-12-19T06:48:46.583Z,100715.11
2018-12-19T06:50:21.568Z,100718.65
2018-12-19T06:51:56.454Z,100717.51
2018-12-19T06:53:31.359Z,100722.70
2018-12-19T06:55:06.770Z,100719.08
2018-12-19T06:56:41.767Z,100715.09
2018-12-19T06:58:16.699Z,100716.75
2018-12-19T06:59:51.611Z,100720.62
2018-12-19T07:01:26.627Z,100715.61
2018-12-19T07:03:01.557Z,100720.06
2018-12-19T07:04:36.453Z,100723.23
2018-12-19T07:06:11.360Z,100711.37
2018-12-19T07:07:46.285Z,100710.62
2018-12-19T07:09:21.493Z,100710.96
2018-12-19T07:10:56.503Z,100720.02
2018-12-19T07:12:31.448Z,100713.89
2018-12-19T07:14:06.403Z,100705.91
2018-12-19T07:15:41.359Z,100707.53
2018-12-19T07:17:16.501Z,100713.66
2018-12-19T07:18:51.378Z,100712.99
2018-12-19T07:20:26.318Z,100713.70
2018-12-19T07:22:01.322Z,100714.08
2018-12-19T07:23:36.239Z,100713.58
2018-12-19T07:25:11.110Z,100724.53
2018-12-19T07:26:46.634Z,100727.14
2018-12-19T07:28:21.633Z,100732.22
2018-12-19T07:29:56.568Z,100730.42
2018-12-19T07:31:31.523Z,100731.88
2018-12-19T07:33:06.544Z,100737.08
2018-12-19T07:34:44.282Z,100739.73
2018-12-19T07:36:18.512Z,100747.65
2018-12-19T07:37:53.795Z,100734.85
2018-12-19T07:39:28.792Z,100731.31
2018-12-19T07:41:03.956Z,100723.26
2018-12-19T07:42:38.881Z,100721.02
2018-12-19T07:44:13.779Z,100721.48
2018-12-19T07:45:49.018Z,100719.11
2018-12-19T07:47:24.053Z,100721.22
2018-12-19T07:48:58.967Z,100733.45
2018-12-19T07:50:34.252Z,100728.94
2018-12-19T07:52:09.255Z,100730.38
2018-12-19T07:53:44.250Z,100732.70
2018-12-19T07:55:19.157Z,100728.00
2018-12-19T07:56:54.087Z,100736.55
2018-12-19T07:58:29.108Z,100731.92
2018-12-19T08:00:04.716Z,100737.59
2018-12-19T08:01:39.651Z,100743.35
2018-12-19T08:03:14.596Z,100748.02
2018-12-19T08:04:49.827Z,100751.19
2018-12-19T08:06:24.847Z,100747.34
2018-12-19T08:07:59.786Z,100751.19
2018-12-19T08:09:34.932Z,100744.95
2018-12-19T08:11:09.940Z,100750.74
2018-12-19T08:12:45.092Z,100745.66
2018-12-19T08:14:20.062Z,100741.36
2018-12-19T08:15:54.979Z,100750.83
2018-12-19T08:17:29.870Z,100748.30
2018-12-19T08:19:04.882Z,100742.11
2018-12-19T08:20:40.196Z,100739.25
2018-12-19T08:22:15.111Z,100746.17
2018-12-19T08:23:56.660Z,100745.02
2018-12-19T08:25:31.631Z,100750.23
2018-12-19T08:27:06.579Z,100743.05
2018-12-19T08:28:42.156Z,100751.55
2018-12-19T08:30:17.110Z,100743.03
2018-12-19T08:31:52.124Z,100738.66
2018-12-19T08:33:27.031Z,100738.85
2018-12-19T08:35:01.907Z,100749.41
2018-12-19T08:36:36.830Z,100753.61
2018-12-19T08:38:11.799Z,100748.23
2018-12-19T08:39:46.845Z,100752.70
2018-12-19T08:41:21.770Z,100741.97
2018-12-19T08:42:56.660Z,100740.09
2018-12-19T08:44:31.657Z,100742.70
2018-12-19T08:46:06.654Z,100739.08
2018-12-19T08:47:41.643Z,100736.70
2018-12-19T08:49:16.596Z,100758.02
2018-12-19T08:50:51.499Z,100751.03
2018-12-19T08:52:26.447Z,100741.87
2018-12-19T08:54:01.374Z,100736.43
2018-12-19T08:55:36.412Z,100748.87
2018-12-19T08:57:11.391Z,100744.83
2018-12-19T08:58:46.357Z,100743.45
2018-12-19T09:00:21.905Z,100745.37
2018-12-19T09:01:59.490Z,100737.16
2018-12-19T09:03:34.659Z,100739.34
2018-12-19T09:05:09.693Z,100746.68
2018-12-19T09:06:44.605Z,100753.84
2018-12-19T09:08:19.553Z,100744.72
2018-12-19T09:10:00.431Z,100758.87
2018-12-19T09:11:35.388Z,100764.47
2018-12-19T09:13:10.350Z,100758.83
2018-12-19T09:14:51.265Z,100774.17
2018-12-19T09:16:26.428Z,100772.07
2018-12-19T09:18:01.499Z,100778.27
2018-12-19T09:19:36.779Z,100771.03
2018-12-19T09:21:11.675Z,100772.95
2018-12-19T09:22:46.865Z,100765.03
2018-12-19T09:24:21.860Z,100763.31
2018-12-19T09:25:56.933Z,100765.02
2018-12-19T09:27:31.868Z,100765.83
2018-12-19T09:29:06.858Z,100770.38
2018-12-19T09:30:41.771Z,100757.23
2018-12-19T09:32:16.730Z,100755.52
2018-12-19T09:33:51.694Z,100751.54
2018-12-19T09:35:26.652Z,100748.30
2018-12-19T09:37:01.593Z,100740.50
2018-12-19T09:38:36.540Z,100743.06
2018-12-19T09:40:11.487Z,100745.56
2018-12-19T09:41:46.519Z,100748.28
2018-12-19T09:43:21.459Z,100747.94
2018-12-19T09:44:56.434Z,100747.77
2018-12-19T09:46:31.451Z,100757.96
2018-12-19T09:48:06.723Z,100757.71
2018-12-19T09:49:41.668Z,100762.70
2018-12-19T09:51:16.650Z,100766.13
2018-12-19T09:52:52.702Z,100766.64
2018-12-19T09:54:27.916Z,100765.91
2018-12-19T09:56:03.894Z,100763.52
2018-12-19T09:57:39.768Z,100754.20
2018-12-19T10:32:21.395Z,100752.33
2018-12-19T10:34:45.108Z,100749.44
2018-12-19T10:36:49.856Z,100747.26
2018-12-19T10:38:38.446Z,100753.72
2018-12-19T10:40:14.060Z,100749.10
2018-12-19T10:41:49.128Z,100750.61
2018-12-19T10:43:24.055Z,100747.70
2018-12-19T10:44:59.054Z,100759.98
2018-12-19T10:46:34.163Z,100757.73
2018-12-19T10:48:09.107Z,100743.77
2018-12-19T10:49:44.000Z,100752.46
2018-12-19T10:51:18.990Z,100748.20
2018-12-19T10:52:53.943Z,100746.43
2018-12-19T10:54:28.879Z,100748.05
2018-12-19T10:56:03.807Z,100738.22
2018-12-19T10:57:39.095Z,100742.28
2018-12-19T10:59:13.991Z,100738.06
2018-12-19T11:01:04.076Z,100737.22
2018-12-19T11:02:39.078Z,100736.48
2018-12-19T11:04:13.979Z,100737.73
2018-12-19T11:05:54.353Z,100745.55
2018-12-19T11:07:25.801Z,100724.50
2018-12-19T11:09:00.807Z,100721.14
2018-12-19T11:10:35.758Z,100715.16
2018-12-19T11:12:10.704Z,100717.17
2018-12-19T11:13:45.667Z,100704.34
2018-12-19T11:15:21.069Z,100708.28
2018-12-19T11:16:56.015Z,100710.41
2018-12-19T11:18:30.950Z,100707.73
2018-12-19T11:20:06.368Z,100715.06
2018-12-19T11:21:41.322Z,100715.98
2018-12-19T11:23:16.255Z,100700.87
2018-12-19T11:24:51.184Z,100704.23
2018-12-19T11:26:27.284Z,100696.52
2018-12-19T11:28:02.499Z,100697.12
2018-12-19T11:29:37.403Z,100700.41
2018-12-19T11:31:12.909Z,100697.67
2018-12-19T11:32:47.821Z,100701.73
2018-12-19T11:34:22.795Z,100708.65
2018-12-19T11:35:57.812Z,100684.59
2018-12-19T11:37:32.730Z,100699.94
2018-12-19T11:39:09.178Z,100682.78
2018-12-19T11:40:44.137Z,100700.64
2018-12-19T11:42:19.987Z,100684.33
2018-12-19T11:43:54.933Z,100695.29
2018-12-19T11:45:29.864Z,100686.49
2018-12-19T11:47:04.800Z,100670.08
2018-12-19T11:48:39.838Z,100663.70
2018-12-19T11:50:14.746Z,100688.30
2018-12-19T11:51:49.700Z,100688.21
2018-12-19T11:53:24.611Z,100682.48
2018-12-19T11:54:59.559Z,100685.29
2018-12-19T11:56:34.483Z,100679.77
2018-12-19T11:58:09.388Z,100680.97
2018-12-19T11:59:44.300Z,100680.64
2018-12-19T12:01:19.336Z,100682.05
2018-12-19T12:02:54.240Z,100670.10
2018-12-19T12:04:29.160Z,100679.42
2018-12-19T12:06:10.722Z,100677.52
2018-12-19T12:07:45.731Z,100680.41
2018-12-19T12:09:20.647Z,100682.35
2018-12-19T12:10:55.571Z,100665.59
2018-12-19T12:12:30.604Z,100675.84
2018-12-19T12:14:05.669Z,100669.30
2018-12-19T12:15:40.574Z,100656.28
2018-12-19T12:17:15.475Z,100668.20
2018-12-19T12:18:50.531Z,100657.70
2018-12-19T12:20:25.462Z,100660.10
2018-12-19T12:22:00.355Z,100663.00
2018-12-19T12:23:35.288Z,100669.62
2018-12-19T12:25:10.562Z,100660.76
2018-12-19T12:26:45.470Z,100664.07
2018-12-19T12:28:20.411Z,100653.70
2018-12-19T12:29:55.311Z,100646.23
2018-12-19T12:31:30.569Z,100653.59
2018-12-19T12:33:05.514Z,100654.36
2018-12-19T12:34:40.418Z,100651.88
2018-12-19T12:36:15.332Z,100655.36
2018-12-19T12:37:50.291Z,100647.53
2018-12-19T12:39:25.228Z,100647.45
2018-12-19T12:41:00.219Z,100655.59
2018-12-19T12:42:35.204Z,100646.62
2018-12-19T12:44:10.091Z,100644.04
2018-12-19T12:45:45.087Z,100634.89
2018-12-19T12:47:20.064Z,100637.14
2018-12-19T12:48:55.268Z,100638.95
2018-12-19T12:50:30.258Z,100636.05
2018-12-19T12:52:05.190Z,100624.48
2018-12-19T12:53:40.144Z,100637.28
2018-12-19T12:55:15.064Z,100635.05
2018-12-19T12:56:50.055Z,100633.99
2018-12-19T12:58:24.975Z,100631.34
2018-12-19T12:59:59.896Z,100627.75
2018-12-19T13:01:34.791Z,100628.64
2018-12-19T13:03:09.769Z,100621.06
2018-12-19T13:04:44.674Z,100635.72
2018-12-19T13:06:19.612Z,100641.53
2018-12-19T13:07:54.539Z,100647.03
2018-12-19T13:09:29.517Z,100632.09
2018-12-19T13:11:04.536Z,100631.71
2018-12-19T13:12:39.510Z,100632.08
2018-12-19T13:14:14.419Z,100624.97
2018-12-19T13:15:49.347Z,100625.94
2018-12-19T13:17:24.289Z,100631.81
2018-12-19T13:18:59.259Z,100627.98
2018-12-19T13:20:34.259Z,100626.66
2018-12-19T13:22:09.232Z,100638.48
2018-12-19T13:23:44.199Z,100626.52
2018-12-19T13:25:19.144Z,100628.30
2018-12-19T13:26:54.120Z,100634.08
2018-12-19T13:28:29.023Z,100640.50
2018-12-19T13:30:07.141Z,100635.91
2018-12-19T13:31:43.707Z,100628.28
2018-12-19T13:33:25.254Z,100630.42
2018-12-19T13:35:00.215Z,100642.15
2018-12-19T13:36:35.269Z,100639.20
2018-12-19T13:38:10.251Z,100639.52
2018-12-19T13:39:45.230Z,100643.20
2018-12-19T13:41:22.222Z,100640.06
2018-12-19T13:43:14.307Z,100640.59
2018-12-19T13:44:50.069Z,100641.84
2018-12-19T13:46:26.965Z,100629.90
2018-12-19T13:48:02.528Z,100631.36
2018-12-19T13:53:57.625Z,100634.81
2018-12-19T13:55:33.022Z,100637.52
2018-12-19T13:57:11.207Z,100636.39
2018-12-19T14:21:00.554Z,100646.21
2018-12-19T14:22:41.904Z,100646.77
2018-12-19T14:24:21.501Z,100649.08
2018-12-19T14:26:07.858Z,100655.86
2018-12-19T14:27:47.986Z,100652.50
2018-12-19T14:29:25.640Z,100655.41
2018-12-19T14:41:46.752Z,100657.00
2018-12-19T14:43:36.466Z,100668.72
2018-12-19T14:58:01.812Z,100642.56
2018-12-19T14:59:37.220Z,100634.81
2018-12-19T15:01:12.509Z,100636.41
2018-12-19T15:02:47.914Z,100627.39
2018-12-19T15:04:22.941Z,100643.25
2018-12-19T15:05:58.000Z,100640.63
2018-12-19T15:07:33.012Z,100638.33
2018-12-19T15:09:09.181Z,100634.38
2018-12-19T15:10:44.370Z,100632.84
2018-12-19T15:12:25.572Z,100638.17
2018-12-19T15:13:56.841Z,100635.53
2018-12-19T15:15:32.068Z,100636.92
2018-12-19T15:17:14.068Z,100630.52
2018-12-19T15:18:49.109Z,100635.08
2018-12-19T15:20:24.141Z,100634.98
2018-12-19T15:21:59.168Z,100628.66
2018-12-19T15:23:34.125Z,100625.92
2018-12-19T15:25:09.183Z,100615.23
2018-12-19T15:26:44.483Z,100618.88
2018-12-19T15:28:19.457Z,100616.54
2018-12-19T15:29:54.384Z,100618.12
2018-12-19T15:31:29.360Z,100625.21
2018-12-19T15:33:04.657Z,100612.11
2018-12-19T15:34:39.627Z,100621.33
2018-12-19T15:36:14.823Z,100613.23
2018-12-19T15:37:49.715Z,100608.78
2018-12-19T15:39:24.719Z,100608.89
2018-12-19T15:40:59.735Z,100608.50
2018-12-19T15:42:34.693Z,100615.47
2018-12-19T15:44:09.664Z,100618.88
2018-12-19T15:45:44.664Z,100622.63
2018-12-19T15:47:19.624Z,100618.94
2018-12-19T15:48:54.579Z,100616.11
2018-12-19T15:50:29.599Z,100609.03
2018-12-19T15:52:04.584Z,100606.02
2018-12-19T15:53:39.559Z,100604.86
2018-12-19T15:55:14.683Z,100608.58
2018-12-19T15:56:49.635Z,100606.05
2018-12-19T15:58:24.913Z,100609.33
2018-12-19T15:59:59.836Z,100612.91
2018-12-19T16:01:34.792Z,100620.17
2018-12-19T16:03:09.713Z,100621.27
2018-12-19T16:04:44.735Z,100615.20
2018-12-19T16:06:19.655Z,100612.28
2018-12-19T16:07:54.799Z,100604.82
2018-12-19T16:09:29.743Z,100607.25
2018-12-19T16:11:05.894Z,100605.16
2018-12-19T16:12:40.899Z,100607.42
2018-12-19T16:14:15.855Z,100615.44
2018-12-19T16:15:50.799Z,100615.88
2018-12-19T16:17:26.163Z,100605.03
2018-12-19T16:19:08.231Z,100606.42
2018-12-19T16:47:36.903Z,100585.13
2018-12-19T16:49:11.898Z,100586.65
2018-12-19T16:50:52.026Z,100588.38
2018-12-19T16:52:26.973Z,100588.02
2018-12-19T16:54:03.165Z,100580.92
2018-12-19T16:55:39.018Z,100578.20
2018-12-19T16:57:13.938Z,100583.91
2018-12-19T16:58:48.884Z,100581.42
2018-12-19T17:00:23.954Z,100576.31
2018-12-19T17:01:58.900Z,100580.41
2018-12-19T17:03:33.812Z,100575.87
2018-12-19T17:05:09.436Z,100584.41
2018-12-19T17:06:44.467Z,100572.87
2018-12-19T17:08:19.470Z,100582.02
2018-12-19T17:09:54.437Z,100580.05
2018-12-19T17:11:29.460Z,100578.19
2018-12-19T17:13:04.491Z,100583.70
2018-12-19T17:14:39.430Z,100580.80
2018-12-19T17:16:14.362Z,100587.23
2018-12-19T17:17:49.332Z,100584.97
2018-12-19T17:19:24.345Z,100582.99
2018-12-19T17:20:59.259Z,100580.93
2018-12-19T17:22:34.163Z,100580.14
2018-12-19T17:24:09.104Z,100579.64
2018-12-19T17:25:44.102Z,100575.25
2018-12-19T17:27:19.083Z,100576.09
2018-12-19T17:28:54.444Z,100579.86
2018-12-19T17:30:29.719Z,100572.31
2018-12-19T17:32:06.806Z,100571.68
2018-12-19T17:33:41.899Z,100572.57
2018-12-19T17:35:22.340Z,100567.48
2018-12-19T17:36:57.801Z,100566.66
2018-12-19T17:38:35.005Z,100566.80
2018-12-19T17:40:10.523Z,100571.92
2018-12-19T17:41:45.593Z,100564.62
2018-12-19T17:43:26.087Z,100563.73
2018-12-19T17:45:04.168Z,100563.19
2018-12-19T17:46:39.108Z,100559.41
2018-12-19T17:48:14.108Z,100565.70
2018-12-19T17:49:49.047Z,100574.93
2018-12-19T17:51:24.063Z,100568.84
2018-12-19T17:52:58.985Z,100568.66
2018-12-19T17:54:34.024Z,100573.79
2018-12-19T17:56:09.011Z,100567.49
2018-12-19T17:57:44.001Z,100573.42
2018-12-19T17:59:19.085Z,100558.96
2018-12-19T18:00:54.176Z,100573.51
2018-12-19T18:04:25.467Z,100562.15
2018-12-19T18:06:00.621Z,100562.27
2018-12-19T18:07:35.672Z,100551.33
2018-12-19T18:09:10.701Z,100555.72
2018-12-19T18:10:45.759Z,100550.70
2018-12-19T18:12:20.842Z,100550.13
2018-12-19T18:13:55.980Z,100548.83
2018-12-19T18:15:31.021Z,100551.28
2018-12-19T18:17:06.197Z,100543.39
2018-12-19T18:18:41.297Z,100536.82
2018-12-19T18:20:16.399Z,100544.91
2018-12-19T18:21:51.509Z,100541.50
2018-12-19T18:23:26.627Z,100538.00
2018-12-19T18:25:01.639Z,100535.28
2018-12-19T18:26:36.778Z,100536.42
2018-12-19T18:28:11.949Z,100548.42
2018-12-19T18:29:47.085Z,100548.63
2018-12-19T18:31:22.135Z,100549.74
2018-12-19T18:32:57.248Z,100547.36
2018-12-19T18:34:32.324Z,100554.12
2018-12-19T18:36:07.461Z,100548.62
2018-12-19T18:37:42.535Z,100552.89
2018-12-19T18:39:17.658Z,100553.97
2018-12-19T18:40:52.724Z,100560.72
2018-12-19T18:42:27.847Z,100559.55
2018-12-19T18:44:02.976Z,100561.45
2018-12-19T18:45:38.040Z,100564.32
2018-12-19T18:47:13.204Z,100557.33
2018-12-19T18:48:48.301Z,100559.66
2018-12-19T18:50:23.362Z,100563.08
2018-12-19T18:51:58.408Z,100556.28
2018-12-19T18:53:33.511Z,100555.28
2018-12-19T18:55:09.281Z,100544.94
2018-12-19T18:56:44.369Z,100544.47
2018-12-19T18:58:19.509Z,100547.13
2018-12-19T18:59:54.686Z,100540.20
2018-12-19T19:01:30.352Z,100535.49
2018-12-19T19:03:05.657Z,100539.22
2018-12-19T19:04:47.267Z,100542.98
2018-12-19T19:06:22.527Z,100543.39
2018-12-19T19:07:57.757Z,100533.83
2018-12-19T19:09:32.939Z,100548.03
2018-12-19T19:11:08.023Z,100546.27
2018-12-19T19:12:43.103Z,100548.14
2018-12-19T19:14:18.389Z,100548.06
2018-12-19T19:15:53.989Z,100537.33
2018-12-19T19:17:29.686Z,100551.77
2018-12-19T19:19:04.861Z,100548.81
2018-12-19T19:20:40.350Z,100554.89
2018-12-19T19:22:15.418Z,100553.86
2018-12-19T19:25:30.142Z,100558.02
2018-12-19T19:27:10.375Z,100559.39
2018-12-19T19:28:45.979Z,100561.09
2018-12-19T19:30:22.846Z,100558.75
2018-12-19T19:31:58.365Z,100564.91
2018-12-19T19:33:33.473Z,100563.79
2018-12-19T19:35:08.870Z,100567.30
2018-12-19T19:36:43.969Z,100555.94
2018-12-19T19:38:19.092Z,100562.25
2018-12-19T19:39:54.149Z,100557.32
2018-12-19T19:41:30.338Z,100564.19
2018-12-19T19:43:05.638Z,100565.36
2018-12-19T19:44:40.669Z,100560.82
2018-12-19T19:46:16.039Z,100564.30
2018-12-19T19:47:51.497Z,100559.80
2018-12-19T19:49:26.645Z,100551.39
2018-12-19T19:51:01.734Z,100562.63
2018-12-19T19:52:36.759Z,100560.99
2018-12-19T19:54:11.878Z,100561.97
2018-12-19T19:55:46.855Z,100560.86
2018-12-19T19:57:21.946Z,100555.91
2018-12-19T19:58:57.475Z,100557.97
2018-12-19T20:00:33.763Z,100555.31
2018-12-19T20:02:09.411Z,100557.34
2018-12-19T20:03:44.981Z,100561.25
2018-12-19T20:05:20.566Z,100561.19
2018-12-19T20:07:00.089Z,100560.98
2018-12-19T20:08:33.866Z,100565.90
2018-12-19T20:10:09.788Z,100567.50
2018-12-19T20:11:45.411Z,100565.17
2018-12-19T20:13:21.029Z,100565.83
2018-12-19T20:14:56.826Z,100566.56
2018-12-19T20:16:34.558Z,100568.29
2018-12-19T20:18:13.195Z,100571.20
2018-12-19T20:19:48.832Z,100578.22
2018-12-19T20:21:24.546Z,100570.73
2018-12-19T20:23:00.369Z,100564.84
2018-12-19T20:24:36.035Z,100576.53
2018-12-19T20:26:11.603Z,100568.63
2018-12-19T20:27:47.415Z,100570.33
2018-12-19T20:29:23.253Z,100569.45
2018-12-19T20:30:59.088Z,100578.73
2018-12-19T20:32:34.767Z,100574.68
2018-12-19T20:34:10.642Z,100567.99
2018-12-19T20:35:46.515Z,100575.90
2018-12-19T20:37:22.263Z,100563.44
2018-12-19T20:38:58.240Z,100566.24
2018-12-19T20:40:34.172Z,100567.77
2018-12-19T20:42:09.805Z,100570.45
2018-12-19T20:43:45.641Z,100564.46
2018-12-19T20:45:21.429Z,100556.52
2018-12-19T20:46:57.166Z,100568.55
2018-12-19T20:48:33.024Z,100576.09
2018-12-19T20:50:09.940Z,100574.50
2018-12-19T20:51:45.891Z,100569.88
2018-12-19T20:53:21.823Z,100563.35
2018-12-19T20:54:57.753Z,100565.88
2018-12-19T20:56:33.545Z,100557.92
2018-12-19T20:58:09.464Z,100559.39
2018-12-19T20:59:45.123Z,100562.08
2018-12-19T21:01:20.942Z,100560.20
2018-12-19T21:02:56.662Z,100556.02
2018-12-19T21:04:32.454Z,100556.41
2018-12-19T21:06:08.391Z,100553.73
2018-12-19T21:07:44.506Z,100555.85
2018-12-19T21:09:20.440Z,100554.09
2018-12-19T21:10:56.245Z,100550.46
2018-12-19T21:12:31.938Z,100544.23
2018-12-19T21:14:08.269Z,100548.23
2018-12-19T21:15:43.969Z,100546.34
2018-12-19T21:17:24.575Z,100547.73
2018-12-19T21:19:00.052Z,100540.27
2018-12-19T21:20:35.538Z,100537.44
2018-12-19T21:22:13.015Z,100537.66
2018-12-19T21:23:48.435Z,100542.78
2018-12-19T21:25:23.943Z,100539.57
2018-12-19T21:26:59.387Z,100547.74
2018-12-19T21:28:34.887Z,100540.20
2018-12-19T21:30:11.693Z,100531.38
2018-12-19T21:31:47.156Z,100536.38
2018-12-19T21:33:22.485Z,100533.28
2018-12-19T21:34:57.977Z,100534.25
2018-12-19T21:36:33.682Z,100532.44
2018-12-19T21:38:09.210Z,100529.88
2018-12-19T21:39:44.740Z,100533.80
2018-12-19T21:41:20.295Z,100528.55
2018-12-19T21:42:56.585Z,100535.80
2018-12-19T21:44:32.197Z,100534.35
2018-12-19T21:46:07.988Z,100524.21
2018-12-19T21:47:43.511Z,100511.16
2018-12-19T21:49:19.247Z,100523.80
2018-12-19T21:50:54.689Z,100519.44
2018-12-19T21:52:30.576Z,100528.46
2018-12-19T21:54:06.190Z,100518.83
2018-12-19T21:55:41.664Z,100512.98
2018-12-19T21:57:17.126Z,100506.34
2018-12-19T21:58:52.536Z,100510.58
2018-12-19T22:00:35.222Z,100513.86
2018-12-19T22:02:10.780Z,100510.91
2018-12-19T22:03:46.282Z,100516.50
2018-12-19T22:05:21.623Z,100520.38
2018-12-19T22:06:57.325Z,100524.95
2018-12-19T22:08:32.747Z,100521.98
2018-12-19T22:10:08.435Z,100522.78
2018-12-19T22:11:44.104Z,100522.23
2018-12-19T22:13:19.678Z,100526.70
2018-12-19T22:14:55.015Z,100533.98
2018-12-19T22:16:35.539Z,100533.28
2018-12-19T22:18:16.148Z,100541.98
2018-12-19T22:19:51.807Z,100550.92
2018-12-19T22:21:26.803Z,100554.44
2018-12-19T22:23:02.108Z,100552.36
2018-12-19T22:24:37.125Z,100557.17
2018-12-19T22:26:12.174Z,100558.50
2018-12-19T22:27:47.299Z,100561.46
2018-12-19T22:29:22.247Z,100556.45
2018-12-19T22:30:57.251Z,100553.20
2018-12-19T22:32:32.272Z,100547.39
2018-12-19T22:34:07.656Z,100550.05
2018-12-19T22:35:42.598Z,100546.59
2018-12-19T22:37:17.569Z,100557.11
2018-12-19T22:38:52.487Z,100553.50
2018-12-19T22:40:27.485Z,100554.30
2018-12-19T22:42:02.461Z,100555.03
2018-12-19T22:43:37.458Z,100555.44
2018-12-19T22:45:12.502Z,100547.98
2018-12-19T22:46:47.598Z,100549.64
2018-12-19T22:48:22.686Z,100557.72
2018-12-19T22:49:57.787Z,100546.17
2018-12-19T22:51:32.734Z,100550.01
2018-12-19T22:53:07.666Z,100540.28
2018-12-19T22:54:42.911Z,100538.27
2018-12-19T22:56:17.862Z,100543.20
2018-12-19T22:57:52.980Z,100539.17
2018-12-19T22:59:27.979Z,100525.16
2018-12-19T23:01:09.509Z,100529.69